DLH411 KJFK-EDDM
Flight info
| Callsign | DLH411 |
|---|---|
| Flight time | 7h 24m |
| Altitude | 39000 |
| Route | MERIT DCT HFD DCT PUT DCT WITCH DCT ALLEX N685B NEEKO/M084F400 DCT 54N050W 55N040W 55N030W 54N020W DCT MALOT DCT GISTI/N0486F410 DCT BAKUR DCT OKSAW DCT KONAN DCT KOK DCT MATUG DCT MOVUM T109 HAREM/N0478F350 T104 ELMOX/N0461F270 T104 ROKIL ROKIL1A |
| Aircraft | A359/H-SADE2E3GHIJ1J2J3J4J5M1P2RWXYZ/LB1D1 |
Departure
| Time | 2026-04-30 10:47 |
|---|---|
| Airport | John F. Kennedy International Airport (KJFK) |
Arrival
| Time | 2026-04-30 18:11 |
|---|---|
| Airport | Munich Airport (EDDM) |
| Time | Latitude | Longitude | Altitude | Speed | Heading |
|---|---|---|---|---|---|
| 2026-04-30 10:22 | 40.65130 | -73.78365 | 27 ft | 0 kts | 156° |
| 2026-04-30 10:35 | 40.65140 | -73.78371 | 26 ft | 4 kts | 151° |
| 2026-04-30 10:36 | 40.65161 | -73.78391 | 25 ft | 4 kts | 124° |
| 2026-04-30 10:36 | 40.65169 | -73.78421 | 24 ft | 4 kts | 73° |
| 2026-04-30 10:36 | 40.65159 | -73.78439 | 24 ft | 1 kts | 24° |
| 2026-04-30 10:36 | 40.65155 | -73.78441 | 24 ft | 0 kts | 24° |
| 2026-04-30 10:40 | 40.65157 | -73.78440 | 27 ft | 1 kts | 24° |
| 2026-04-30 10:40 | 40.65186 | -73.78423 | 27 ft | 7 kts | 22° |
| 2026-04-30 10:41 | 40.65241 | -73.78383 | 26 ft | 9 kts | 48° |
| 2026-04-30 10:41 | 40.65231 | -73.78302 | 27 ft | 13 kts | 116° |
| 2026-04-30 10:41 | 40.65187 | -73.78198 | 27 ft | 11 kts | 118° |
| 2026-04-30 10:41 | 40.65203 | -73.78135 | 26 ft | 7 kts | 36° |
| 2026-04-30 10:42 | 40.65214 | -73.78073 | 27 ft | 11 kts | 108° |
| 2026-04-30 10:42 | 40.65164 | -73.77952 | 26 ft | 17 kts | 120° |
| 2026-04-30 10:42 | 40.65100 | -73.77810 | 29 ft | 21 kts | 121° |
| 2026-04-30 10:42 | 40.65019 | -73.77636 | 32 ft | 23 kts | 122° |
| 2026-04-30 10:43 | 40.64941 | -73.77463 | 32 ft | 21 kts | 120° |
| 2026-04-30 10:43 | 40.64868 | -73.77301 | 27 ft | 20 kts | 121° |
| 2026-04-30 10:43 | 40.64798 | -73.77149 | 27 ft | 19 kts | 121° |
| 2026-04-30 10:43 | 40.64731 | -73.77000 | 27 ft | 19 kts | 120° |
| 2026-04-30 10:44 | 40.64685 | -73.76870 | 26 ft | 10 kts | 81° |
| 2026-04-30 10:44 | 40.64743 | -73.76808 | 27 ft | 16 kts | 32° |
| 2026-04-30 10:44 | 40.64848 | -73.76722 | 28 ft | 18 kts | 32° |
| 2026-04-30 10:44 | 40.64955 | -73.76639 | 27 ft | 18 kts | 30° |
| 2026-04-30 10:45 | 40.65062 | -73.76557 | 28 ft | 17 kts | 30° |
| 2026-04-30 10:45 | 40.65092 | -73.76456 | 28 ft | 11 kts | 109° |
| 2026-04-30 10:45 | 40.65055 | -73.76377 | 29 ft | 10 kts | 134° |
| 2026-04-30 10:45 | 40.65004 | -73.76371 | 29 ft | 7 kts | 207° |
| 2026-04-30 10:46 | 40.64962 | -73.76403 | 28 ft | 12 kts | 210° |
| 2026-04-30 10:46 | 40.64723 | -73.76588 | 27 ft | 72 kts | 210° |
| 2026-04-30 10:46 | 40.64118 | -73.77060 | 28 ft | 128 kts | 211° |
| 2026-04-30 10:46 | 40.63208 | -73.77774 | 110 ft | 169 kts | 209° |
| 2026-04-30 10:47 | 40.62232 | -73.78523 | 951 ft | 156 kts | 208° |
| 2026-04-30 10:47 | 40.61308 | -73.79221 | 1681 ft | 157 kts | 209° |
| 2026-04-30 10:47 | 40.60299 | -73.80004 | 1877 ft | 179 kts | 210° |
| 2026-04-30 10:47 | 40.59183 | -73.80913 | 2141 ft | 200 kts | 212° |
| 2026-04-30 10:48 | 40.57846 | -73.81645 | 2387 ft | 223 kts | 186° |
| 2026-04-30 10:48 | 40.56280 | -73.81150 | 2739 ft | 247 kts | 154° |
| 2026-04-30 10:48 | 40.55040 | -73.79475 | 3203 ft | 268 kts | 123° |
| 2026-04-30 10:48 | 40.54366 | -73.77145 | 3839 ft | 275 kts | 108° |
| 2026-04-30 10:49 | 40.53849 | -73.74709 | 4486 ft | 278 kts | 107° |
| 2026-04-30 10:49 | 40.53291 | -73.72271 | 5136 ft | 279 kts | 109° |
| 2026-04-30 10:49 | 40.52772 | -73.69803 | 5774 ft | 282 kts | 101° |
| 2026-04-30 10:49 | 40.52882 | -73.67227 | 6406 ft | 286 kts | 74° |
| 2026-04-30 10:50 | 40.53775 | -73.64885 | 6946 ft | 289 kts | 52° |
| 2026-04-30 10:50 | 40.54989 | -73.62758 | 7487 ft | 294 kts | 49° |
| 2026-04-30 10:50 | 40.56345 | -73.60701 | 7974 ft | 301 kts | 47° |
| 2026-04-30 10:50 | 40.57750 | -73.58635 | 8527 ft | 306 kts | 47° |
| 2026-04-30 10:51 | 40.59186 | -73.56540 | 9120 ft | 310 kts | 47° |
| 2026-04-30 10:51 | 40.60681 | -73.54476 | 9680 ft | 314 kts | 40° |
| 2026-04-30 10:51 | 40.62568 | -73.53057 | 10182 ft | 315 kts | 15° |
| 2026-04-30 10:51 | 40.64719 | -73.52317 | 10446 ft | 326 kts | 8° |
| 2026-04-30 10:52 | 40.66990 | -73.51719 | 10691 ft | 340 kts | 7° |
| 2026-04-30 10:52 | 40.69355 | -73.51119 | 10935 ft | 353 kts | 7° |
| 2026-04-30 10:52 | 40.71811 | -73.50496 | 11165 ft | 366 kts | 7° |
| 2026-04-30 10:52 | 40.74339 | -73.49755 | 11387 ft | 379 kts | 14° |
| 2026-04-30 10:53 | 40.76864 | -73.48608 | 11756 ft | 387 kts | 17° |
| 2026-04-30 10:53 | 40.79389 | -73.47310 | 12192 ft | 392 kts | 19° |
| 2026-04-30 10:53 | 40.81915 | -73.45920 | 12644 ft | 396 kts | 20° |
| 2026-04-30 10:53 | 40.84460 | -73.44472 | 13085 ft | 400 kts | 20° |
| 2026-04-30 10:54 | 40.87021 | -73.42998 | 13522 ft | 403 kts | 20° |
| 2026-04-30 10:54 | 40.89605 | -73.41512 | 13915 ft | 407 kts | 20° |
| 2026-04-30 10:54 | 40.92175 | -73.40039 | 14295 ft | 409 kts | 20° |
| 2026-04-30 10:54 | 40.94796 | -73.38543 | 14700 ft | 412 kts | 20° |
| 2026-04-30 10:55 | 40.97439 | -73.37039 | 15114 ft | 414 kts | 20° |
| 2026-04-30 10:55 | 41.00094 | -73.35531 | 15525 ft | 417 kts | 19° |
| 2026-04-30 10:55 | 41.02772 | -73.34010 | 15941 ft | 420 kts | 19° |
| 2026-04-30 10:55 | 41.05461 | -73.32481 | 16349 ft | 422 kts | 19° |
| 2026-04-30 10:56 | 41.08174 | -73.30938 | 16751 ft | 425 kts | 19° |
| 2026-04-30 10:56 | 41.10896 | -73.29388 | 17168 ft | 427 kts | 19° |
| 2026-04-30 10:56 | 41.13628 | -73.27829 | 17620 ft | 428 kts | 19° |
| 2026-04-30 10:56 | 41.16375 | -73.26261 | 18013 ft | 431 kts | 19° |
| 2026-04-30 10:57 | 41.19137 | -73.24683 | 18374 ft | 434 kts | 19° |
| 2026-04-30 10:57 | 41.21915 | -73.23095 | 18716 ft | 436 kts | 19° |
| 2026-04-30 10:57 | 41.24712 | -73.21494 | 19068 ft | 438 kts | 19° |
| 2026-04-30 10:57 | 41.27517 | -73.19888 | 19421 ft | 440 kts | 19° |
| 2026-04-30 10:58 | 41.30338 | -73.18270 | 19770 ft | 442 kts | 19° |
| 2026-04-30 10:58 | 41.33167 | -73.16644 | 20107 ft | 445 kts | 19° |
| 2026-04-30 10:58 | 41.35921 | -73.14705 | 20436 ft | 451 kts | 30° |
| 2026-04-30 10:58 | 41.38384 | -73.12072 | 20768 ft | 458 kts | 44° |
| 2026-04-30 10:59 | 41.40452 | -73.08819 | 21076 ft | 463 kts | 52° |
| 2026-04-30 10:59 | 41.42255 | -73.05256 | 21425 ft | 465 kts | 58° |
| 2026-04-30 10:59 | 41.43908 | -73.01541 | 21748 ft | 467 kts | 60° |
| 2026-04-30 10:59 | 41.45503 | -72.97752 | 22062 ft | 470 kts | 60° |
| 2026-04-30 11:00 | 41.47091 | -72.93943 | 22366 ft | 471 kts | 60° |
| 2026-04-30 11:00 | 41.48701 | -72.90129 | 22713 ft | 472 kts | 60° |
| 2026-04-30 11:00 | 41.50333 | -72.86317 | 23016 ft | 475 kts | 59° |
| 2026-04-30 11:00 | 41.51989 | -72.82497 | 23323 ft | 477 kts | 59° |
| 2026-04-30 11:01 | 41.53661 | -72.78669 | 23598 ft | 478 kts | 59° |
| 2026-04-30 11:01 | 41.55341 | -72.74836 | 23877 ft | 480 kts | 59° |
| 2026-04-30 11:01 | 41.57031 | -72.70981 | 24150 ft | 481 kts | 59° |
| 2026-04-30 11:01 | 41.58722 | -72.67121 | 24423 ft | 482 kts | 59° |
| 2026-04-30 11:02 | 41.60413 | -72.63252 | 24705 ft | 483 kts | 59° |
| 2026-04-30 11:02 | 41.62109 | -72.59365 | 24955 ft | 484 kts | 59° |
| 2026-04-30 11:02 | 41.63797 | -72.55490 | 25361 ft | 482 kts | 59° |
| 2026-04-30 11:02 | 41.65493 | -72.51617 | 25660 ft | 483 kts | 58° |
| 2026-04-30 11:03 | 41.67224 | -72.47757 | 25974 ft | 484 kts | 58° |
| 2026-04-30 11:03 | 41.68973 | -72.43900 | 26276 ft | 485 kts | 58° |
| 2026-04-30 11:03 | 41.70726 | -72.40043 | 26568 ft | 486 kts | 58° |
| 2026-04-30 11:04 | 41.74241 | -72.32270 | 27207 ft | 489 kts | 59° |
| 2026-04-30 11:04 | 41.76001 | -72.28359 | 27529 ft | 491 kts | 59° |
| 2026-04-30 11:04 | 41.77762 | -72.24433 | 27850 ft | 492 kts | 59° |
| 2026-04-30 11:04 | 41.79525 | -72.20492 | 28196 ft | 494 kts | 59° |
| 2026-04-30 11:05 | 41.81290 | -72.16540 | 28551 ft | 496 kts | 60° |
| 2026-04-30 11:05 | 41.83065 | -72.12562 | 28898 ft | 497 kts | 61° |
| 2026-04-30 11:05 | 41.84840 | -72.08577 | 29245 ft | 499 kts | 61° |
| 2026-04-30 11:05 | 41.86622 | -72.04570 | 29571 ft | 501 kts | 61° |
| 2026-04-30 11:06 | 41.88386 | -72.00599 | 29885 ft | 504 kts | 61° |
| 2026-04-30 11:06 | 41.90182 | -71.96551 | 30182 ft | 506 kts | 61° |
| 2026-04-30 11:06 | 41.91984 | -71.92486 | 30442 ft | 508 kts | 61° |
| 2026-04-30 11:06 | 41.93797 | -71.88403 | 30708 ft | 509 kts | 61° |
| 2026-04-30 11:07 | 41.95842 | -71.84502 | 31028 ft | 513 kts | 52° |
| 2026-04-30 11:07 | 41.98286 | -71.80900 | 31306 ft | 516 kts | 48° |
| 2026-04-30 11:07 | 42.00775 | -71.77506 | 31589 ft | 518 kts | 47° |
| 2026-04-30 11:07 | 42.03351 | -71.74107 | 31818 ft | 520 kts | 46° |
| 2026-04-30 11:08 | 42.05958 | -71.70720 | 32034 ft | 522 kts | 46° |
| 2026-04-30 11:08 | 42.08580 | -71.67324 | 32257 ft | 524 kts | 46° |
| 2026-04-30 11:08 | 42.11210 | -71.63910 | 32487 ft | 526 kts | 46° |
| 2026-04-30 11:08 | 42.13840 | -71.60480 | 32821 ft | 525 kts | 46° |
| 2026-04-30 11:09 | 42.16461 | -71.57050 | 33159 ft | 525 kts | 46° |
| 2026-04-30 11:09 | 42.19076 | -71.53613 | 33419 ft | 526 kts | 46° |
| 2026-04-30 11:09 | 42.21696 | -71.50160 | 33705 ft | 527 kts | 46° |
| 2026-04-30 11:09 | 42.24313 | -71.46706 | 33992 ft | 526 kts | 46° |
| 2026-04-30 11:10 | 42.26926 | -71.43252 | 34285 ft | 525 kts | 46° |
| 2026-04-30 11:10 | 42.29533 | -71.39802 | 34568 ft | 524 kts | 45° |
| 2026-04-30 11:10 | 42.32136 | -71.36355 | 34830 ft | 524 kts | 45° |
| 2026-04-30 11:10 | 42.34741 | -71.32901 | 35079 ft | 524 kts | 45° |
| 2026-04-30 11:11 | 42.37342 | -71.29446 | 35339 ft | 524 kts | 45° |
| 2026-04-30 11:11 | 42.39939 | -71.25994 | 35599 ft | 523 kts | 45° |
| 2026-04-30 11:11 | 42.42535 | -71.22540 | 35868 ft | 523 kts | 45° |
| 2026-04-30 11:11 | 42.45126 | -71.19086 | 36130 ft | 523 kts | 45° |
| 2026-04-30 11:12 | 42.47719 | -71.15628 | 36399 ft | 522 kts | 45° |
| 2026-04-30 11:12 | 42.50300 | -71.12180 | 36679 ft | 521 kts | 45° |
| 2026-04-30 11:12 | 42.52875 | -71.08736 | 36948 ft | 521 kts | 44° |
| 2026-04-30 11:12 | 42.55456 | -71.05280 | 37175 ft | 521 kts | 44° |
| 2026-04-30 11:13 | 42.58029 | -71.01829 | 37413 ft | 520 kts | 44° |
| 2026-04-30 11:13 | 42.60602 | -70.98375 | 37671 ft | 520 kts | 44° |
| 2026-04-30 11:13 | 42.63169 | -70.94926 | 37914 ft | 519 kts | 44° |
| 2026-04-30 11:13 | 42.65730 | -70.91480 | 38200 ft | 518 kts | 44° |
| 2026-04-30 11:14 | 42.68145 | -70.87850 | 38396 ft | 518 kts | 52° |
| 2026-04-30 11:14 | 42.70248 | -70.83875 | 38586 ft | 518 kts | 55° |
| 2026-04-30 11:14 | 42.72262 | -70.79811 | 38743 ft | 518 kts | 56° |
| 2026-04-30 11:15 | 42.76189 | -70.71570 | 38858 ft | 521 kts | 57° |
| 2026-04-30 11:15 | 42.80061 | -70.63326 | 38849 ft | 519 kts | 57° |
| 2026-04-30 11:16 | 42.83953 | -70.55049 | 38850 ft | 519 kts | 57° |
| 2026-04-30 11:16 | 42.87850 | -70.46768 | 38857 ft | 519 kts | 57° |
| 2026-04-30 11:17 | 42.91742 | -70.38487 | 38857 ft | 518 kts | 57° |
| 2026-04-30 11:17 | 42.95618 | -70.30215 | 38858 ft | 517 kts | 57° |
| 2026-04-30 11:18 | 42.99490 | -70.21928 | 38857 ft | 517 kts | 58° |
| 2026-04-30 11:18 | 43.05280 | -70.09489 | 38868 ft | 517 kts | 58° |
| 2026-04-30 11:19 | 43.09134 | -70.01181 | 38870 ft | 517 kts | 58° |
| 2026-04-30 11:19 | 43.12331 | -69.94269 | 38869 ft | 517 kts | 58° |
| 2026-04-30 11:20 | 43.16174 | -69.85943 | 38860 ft | 517 kts | 58° |
| 2026-04-30 11:20 | 43.20008 | -69.77613 | 38883 ft | 515 kts | 58° |
| 2026-04-30 11:21 | 43.23812 | -69.69323 | 38885 ft | 513 kts | 58° |
| 2026-04-30 11:21 | 43.27600 | -69.61045 | 38885 ft | 512 kts | 58° |
| 2026-04-30 11:22 | 43.31383 | -69.52753 | 38894 ft | 512 kts | 58° |
| 2026-04-30 11:22 | 43.35160 | -69.44456 | 38896 ft | 512 kts | 58° |
| 2026-04-30 11:23 | 43.38926 | -69.36154 | 38894 ft | 511 kts | 58° |
| 2026-04-30 11:24 | 43.44561 | -69.23689 | 38897 ft | 512 kts | 58° |
| 2026-04-30 11:24 | 43.48312 | -69.15365 | 38901 ft | 512 kts | 59° |
| 2026-04-30 11:25 | 43.53933 | -69.02841 | 38904 ft | 512 kts | 59° |
| 2026-04-30 11:26 | 43.61406 | -68.86111 | 38909 ft | 512 kts | 59° |
| 2026-04-30 11:26 | 43.65132 | -68.77733 | 38920 ft | 512 kts | 59° |
| 2026-04-30 11:27 | 43.68850 | -68.69348 | 38917 ft | 512 kts | 59° |
| 2026-04-30 11:27 | 43.72561 | -68.60957 | 38922 ft | 512 kts | 59° |
| 2026-04-30 11:28 | 43.78119 | -68.48341 | 38932 ft | 512 kts | 59° |
| 2026-04-30 11:29 | 43.81820 | -68.39910 | 38937 ft | 512 kts | 59° |
| 2026-04-30 11:29 | 43.87358 | -68.27247 | 38947 ft | 512 kts | 59° |
| 2026-04-30 11:30 | 43.92859 | -68.14615 | 38952 ft | 512 kts | 59° |
| 2026-04-30 11:31 | 43.96534 | -68.06145 | 38961 ft | 512 kts | 59° |
| 2026-04-30 11:31 | 44.00203 | -67.97664 | 38968 ft | 512 kts | 59° |
| 2026-04-30 11:32 | 44.03863 | -67.89179 | 38967 ft | 512 kts | 59° |
| 2026-04-30 11:32 | 44.07516 | -67.80685 | 38971 ft | 512 kts | 60° |
| 2026-04-30 11:33 | 44.12981 | -67.67931 | 38978 ft | 512 kts | 60° |
| 2026-04-30 11:33 | 44.16613 | -67.59422 | 38988 ft | 511 kts | 60° |
| 2026-04-30 11:34 | 44.20236 | -67.50909 | 38973 ft | 510 kts | 60° |
| 2026-04-30 11:34 | 44.23850 | -67.42392 | 38997 ft | 510 kts | 60° |
| 2026-04-30 11:35 | 44.27456 | -67.33869 | 39002 ft | 510 kts | 60° |
| 2026-04-30 11:35 | 44.31059 | -67.25328 | 38998 ft | 511 kts | 60° |
| 2026-04-30 11:36 | 44.34630 | -67.16836 | 39004 ft | 511 kts | 60° |
| 2026-04-30 11:36 | 44.38222 | -67.08272 | 39007 ft | 511 kts | 60° |
| 2026-04-30 11:37 | 44.42220 | -67.00085 | 39006 ft | 510 kts | 47° |
| 2026-04-30 11:37 | 44.47455 | -66.93404 | 39010 ft | 510 kts | 39° |
| 2026-04-30 11:38 | 44.52966 | -66.87143 | 39009 ft | 510 kts | 38° |
| 2026-04-30 11:38 | 44.58514 | -66.80937 | 39011 ft | 510 kts | 38° |
| 2026-04-30 11:39 | 44.64047 | -66.74695 | 39012 ft | 510 kts | 38° |
| 2026-04-30 11:39 | 44.69565 | -66.68421 | 39012 ft | 510 kts | 38° |
| 2026-04-30 11:40 | 44.75075 | -66.62129 | 39007 ft | 510 kts | 38° |
| 2026-04-30 11:40 | 44.80576 | -66.55831 | 39020 ft | 510 kts | 38° |
| 2026-04-30 11:41 | 44.86074 | -66.49524 | 39024 ft | 510 kts | 38° |
| 2026-04-30 11:41 | 44.91567 | -66.43205 | 39032 ft | 510 kts | 38° |
| 2026-04-30 11:42 | 44.97053 | -66.36879 | 39045 ft | 508 kts | 38° |
| 2026-04-30 11:42 | 45.02528 | -66.30550 | 39041 ft | 508 kts | 38° |
| 2026-04-30 11:43 | 45.07993 | -66.24217 | 39052 ft | 508 kts | 38° |
| 2026-04-30 11:43 | 45.13410 | -66.17922 | 39050 ft | 507 kts | 38° |
| 2026-04-30 11:44 | 45.18854 | -66.11580 | 39051 ft | 506 kts | 38° |
| 2026-04-30 11:44 | 45.24293 | -66.05228 | 39049 ft | 506 kts | 38° |
| 2026-04-30 11:45 | 45.29723 | -65.98871 | 39043 ft | 505 kts | 38° |
| 2026-04-30 11:45 | 45.35139 | -65.92513 | 39045 ft | 505 kts | 39° |
| 2026-04-30 11:46 | 45.40556 | -65.86138 | 39045 ft | 505 kts | 39° |
| 2026-04-30 11:46 | 45.45963 | -65.79759 | 39049 ft | 504 kts | 39° |
| 2026-04-30 11:47 | 45.51363 | -65.73373 | 39055 ft | 504 kts | 39° |
| 2026-04-30 11:47 | 45.56754 | -65.66979 | 39062 ft | 504 kts | 39° |
| 2026-04-30 11:48 | 45.62134 | -65.60578 | 39073 ft | 503 kts | 40° |
| 2026-04-30 11:48 | 45.67513 | -65.54163 | 39078 ft | 503 kts | 40° |
| 2026-04-30 11:49 | 45.72886 | -65.47742 | 39070 ft | 504 kts | 40° |
| 2026-04-30 11:49 | 45.78259 | -65.41305 | 39076 ft | 503 kts | 40° |
| 2026-04-30 11:50 | 45.83587 | -65.34903 | 39071 ft | 503 kts | 40° |
| 2026-04-30 11:50 | 45.88942 | -65.28453 | 39072 ft | 502 kts | 40° |
| 2026-04-30 11:51 | 45.94293 | -65.21990 | 39081 ft | 502 kts | 40° |
| 2026-04-30 11:51 | 45.99638 | -65.15517 | 39137 ft | 503 kts | 40° |
| 2026-04-30 11:52 | 46.02315 | -65.12269 | 39297 ft | 503 kts | 40° |
| 2026-04-30 11:52 | 46.04987 | -65.09023 | 39449 ft | 502 kts | 40° |
| 2026-04-30 11:52 | 46.07656 | -65.05776 | 39581 ft | 502 kts | 40° |
| 2026-04-30 11:52 | 46.10327 | -65.02523 | 39705 ft | 503 kts | 40° |
| 2026-04-30 11:53 | 46.12996 | -64.99268 | 39826 ft | 503 kts | 40° |
| 2026-04-30 11:53 | 46.15667 | -64.96005 | 39950 ft | 503 kts | 40° |
| 2026-04-30 11:53 | 46.21011 | -64.89466 | 40087 ft | 504 kts | 40° |
| 2026-04-30 11:54 | 46.26354 | -64.82911 | 40092 ft | 504 kts | 40° |
| 2026-04-30 11:54 | 46.31700 | -64.76334 | 40097 ft | 505 kts | 40° |
| 2026-04-30 11:55 | 46.37044 | -64.69743 | 40097 ft | 505 kts | 40° |
| 2026-04-30 11:55 | 46.42384 | -64.63138 | 40099 ft | 505 kts | 40° |
| 2026-04-30 11:56 | 46.47685 | -64.56564 | 40099 ft | 505 kts | 40° |
| 2026-04-30 11:56 | 46.53050 | -64.49894 | 40110 ft | 505 kts | 41° |
| 2026-04-30 11:57 | 46.58342 | -64.43296 | 40110 ft | 505 kts | 41° |
| 2026-04-30 11:57 | 46.63668 | -64.36638 | 40116 ft | 505 kts | 41° |
| 2026-04-30 11:58 | 46.68989 | -64.29968 | 40118 ft | 505 kts | 41° |
| 2026-04-30 11:58 | 46.74310 | -64.23280 | 40121 ft | 505 kts | 41° |
| 2026-04-30 11:59 | 46.79621 | -64.16587 | 40127 ft | 504 kts | 41° |
| 2026-04-30 11:59 | 46.84923 | -64.09887 | 40127 ft | 504 kts | 41° |
| 2026-04-30 12:00 | 46.90220 | -64.03176 | 40132 ft | 504 kts | 41° |
| 2026-04-30 12:00 | 46.95519 | -63.96444 | 40141 ft | 504 kts | 41° |
| 2026-04-30 12:01 | 47.00810 | -63.89702 | 40132 ft | 504 kts | 41° |
| 2026-04-30 12:01 | 47.06098 | -63.82946 | 40132 ft | 504 kts | 41° |
| 2026-04-30 12:02 | 47.11383 | -63.76176 | 40127 ft | 504 kts | 42° |
| 2026-04-30 12:02 | 47.16670 | -63.69385 | 40141 ft | 505 kts | 42° |
| 2026-04-30 12:03 | 47.24594 | -63.59172 | 40143 ft | 505 kts | 42° |
| 2026-04-30 12:04 | 47.29875 | -63.52342 | 40145 ft | 505 kts | 42° |
| 2026-04-30 12:04 | 47.35148 | -63.45503 | 40146 ft | 505 kts | 42° |
| 2026-04-30 12:05 | 47.40417 | -63.38649 | 40151 ft | 505 kts | 42° |
| 2026-04-30 12:05 | 47.45683 | -63.31782 | 40160 ft | 505 kts | 42° |
| 2026-04-30 12:06 | 47.50944 | -63.24901 | 40159 ft | 505 kts | 42° |
| 2026-04-30 12:06 | 47.56200 | -63.18008 | 40165 ft | 505 kts | 42° |
| 2026-04-30 12:07 | 47.61449 | -63.11104 | 40166 ft | 505 kts | 42° |
| 2026-04-30 12:07 | 47.66662 | -63.04229 | 40170 ft | 505 kts | 43° |
| 2026-04-30 12:08 | 47.71908 | -62.97292 | 40173 ft | 505 kts | 43° |
| 2026-04-30 12:08 | 47.77146 | -62.90345 | 40175 ft | 505 kts | 43° |
| 2026-04-30 12:09 | 47.82391 | -62.83369 | 40182 ft | 506 kts | 43° |
| 2026-04-30 12:09 | 47.87639 | -62.76370 | 40184 ft | 506 kts | 43° |
| 2026-04-30 12:10 | 47.92028 | -62.70501 | 40182 ft | 506 kts | 43° |
| 2026-04-30 12:10 | 47.97268 | -62.63474 | 40184 ft | 506 kts | 43° |
| 2026-04-30 12:11 | 48.02506 | -62.56432 | 40187 ft | 507 kts | 43° |
| 2026-04-30 12:11 | 48.07706 | -62.49421 | 40189 ft | 507 kts | 43° |
| 2026-04-30 12:12 | 48.12938 | -62.42345 | 40191 ft | 507 kts | 43° |
| 2026-04-30 12:12 | 48.18164 | -62.35258 | 40189 ft | 507 kts | 43° |
| 2026-04-30 12:13 | 48.23392 | -62.28148 | 40192 ft | 508 kts | 43° |
| 2026-04-30 12:13 | 48.28618 | -62.21020 | 40195 ft | 508 kts | 44° |
| 2026-04-30 12:14 | 48.33841 | -62.13875 | 40195 ft | 508 kts | 44° |
| 2026-04-30 12:14 | 48.39063 | -62.06711 | 40201 ft | 508 kts | 44° |
| 2026-04-30 12:15 | 48.44280 | -61.99533 | 40208 ft | 508 kts | 44° |
| 2026-04-30 12:15 | 48.49499 | -61.92332 | 40206 ft | 508 kts | 44° |
| 2026-04-30 12:16 | 48.54714 | -61.85114 | 40206 ft | 509 kts | 44° |
| 2026-04-30 12:16 | 48.59925 | -61.77882 | 40208 ft | 509 kts | 44° |
| 2026-04-30 12:17 | 48.67707 | -61.67042 | 40211 ft | 509 kts | 44° |
| 2026-04-30 12:17 | 48.72909 | -61.59767 | 40213 ft | 509 kts | 44° |
| 2026-04-30 12:18 | 48.78111 | -61.52472 | 40219 ft | 510 kts | 44° |
| 2026-04-30 12:18 | 48.83313 | -61.45156 | 40219 ft | 510 kts | 44° |
| 2026-04-30 12:19 | 48.88509 | -61.37827 | 40222 ft | 510 kts | 44° |
| 2026-04-30 12:19 | 48.93704 | -61.30477 | 40225 ft | 510 kts | 44° |
| 2026-04-30 12:20 | 48.98897 | -61.23107 | 40227 ft | 510 kts | 44° |
| 2026-04-30 12:20 | 49.04082 | -61.15726 | 40230 ft | 510 kts | 44° |
| 2026-04-30 12:21 | 49.09266 | -61.08326 | 40236 ft | 511 kts | 44° |
| 2026-04-30 12:21 | 49.14449 | -61.00904 | 40238 ft | 511 kts | 44° |
| 2026-04-30 12:22 | 49.19631 | -60.93461 | 40238 ft | 511 kts | 44° |
| 2026-04-30 12:22 | 49.24772 | -60.86056 | 40233 ft | 511 kts | 44° |
| 2026-04-30 12:23 | 49.29950 | -60.78574 | 40239 ft | 512 kts | 45° |
| 2026-04-30 12:23 | 49.35124 | -60.71075 | 40233 ft | 512 kts | 45° |
| 2026-04-30 12:24 | 49.40304 | -60.63545 | 40247 ft | 513 kts | 45° |
| 2026-04-30 12:24 | 49.45482 | -60.55994 | 40249 ft | 514 kts | 45° |
| 2026-04-30 12:25 | 49.50659 | -60.48422 | 40252 ft | 514 kts | 45° |
| 2026-04-30 12:25 | 49.55835 | -60.40828 | 40252 ft | 514 kts | 45° |
| 2026-04-30 12:26 | 49.61001 | -60.33226 | 40254 ft | 514 kts | 45° |
| 2026-04-30 12:26 | 49.66171 | -60.25594 | 40254 ft | 514 kts | 45° |
| 2026-04-30 12:27 | 49.71325 | -60.17962 | 40257 ft | 514 kts | 45° |
| 2026-04-30 12:27 | 49.76445 | -60.10356 | 40262 ft | 514 kts | 45° |
| 2026-04-30 12:28 | 49.81630 | -60.02631 | 40260 ft | 514 kts | 45° |
| 2026-04-30 12:28 | 49.86741 | -59.94991 | 40260 ft | 514 kts | 45° |
| 2026-04-30 12:29 | 49.91918 | -59.87230 | 40260 ft | 514 kts | 45° |
| 2026-04-30 12:29 | 49.97021 | -59.79555 | 40258 ft | 514 kts | 45° |
| 2026-04-30 12:30 | 50.02155 | -59.71810 | 40265 ft | 515 kts | 45° |
| 2026-04-30 12:30 | 50.07290 | -59.64037 | 40265 ft | 515 kts | 45° |
| 2026-04-30 12:31 | 50.12415 | -59.56256 | 40268 ft | 515 kts | 45° |
| 2026-04-30 12:31 | 50.17535 | -59.48458 | 40268 ft | 515 kts | 45° |
| 2026-04-30 12:32 | 50.22654 | -59.40637 | 40268 ft | 515 kts | 45° |
| 2026-04-30 12:32 | 50.27766 | -59.32802 | 40268 ft | 515 kts | 45° |
| 2026-04-30 12:33 | 50.32878 | -59.24942 | 40270 ft | 515 kts | 45° |
| 2026-04-30 12:33 | 50.37982 | -59.17068 | 40270 ft | 515 kts | 45° |
| 2026-04-30 12:34 | 50.43083 | -59.09176 | 40268 ft | 515 kts | 46° |
| 2026-04-30 12:34 | 50.48184 | -59.01256 | 40267 ft | 516 kts | 46° |
| 2026-04-30 12:35 | 50.53276 | -58.93325 | 40271 ft | 516 kts | 46° |
| 2026-04-30 12:35 | 50.58368 | -58.85370 | 40270 ft | 516 kts | 46° |
| 2026-04-30 12:36 | 50.63419 | -58.77452 | 40270 ft | 516 kts | 46° |
| 2026-04-30 12:36 | 50.68502 | -58.69459 | 40266 ft | 516 kts | 46° |
| 2026-04-30 12:37 | 50.73579 | -58.61449 | 40268 ft | 517 kts | 46° |
| 2026-04-30 12:37 | 50.78657 | -58.53411 | 40269 ft | 517 kts | 46° |
| 2026-04-30 12:38 | 50.83729 | -58.45357 | 40268 ft | 516 kts | 46° |
| 2026-04-30 12:38 | 50.88793 | -58.37290 | 40268 ft | 517 kts | 46° |
| 2026-04-30 12:39 | 50.93855 | -58.29199 | 40268 ft | 517 kts | 46° |
| 2026-04-30 12:39 | 50.98911 | -58.21092 | 40274 ft | 517 kts | 46° |
| 2026-04-30 12:40 | 51.03953 | -58.12979 | 40268 ft | 516 kts | 46° |
| 2026-04-30 12:40 | 51.08983 | -58.04860 | 40280 ft | 515 kts | 46° |
| 2026-04-30 12:41 | 51.14005 | -57.96726 | 40270 ft | 515 kts | 46° |
| 2026-04-30 12:41 | 51.19021 | -57.88575 | 40270 ft | 515 kts | 46° |
| 2026-04-30 12:42 | 51.24028 | -57.80412 | 40279 ft | 515 kts | 46° |
| 2026-04-30 12:42 | 51.29035 | -57.72223 | 40271 ft | 515 kts | 46° |
| 2026-04-30 12:43 | 51.34001 | -57.64073 | 40271 ft | 515 kts | 46° |
| 2026-04-30 12:43 | 51.38988 | -57.55862 | 40265 ft | 515 kts | 47° |
| 2026-04-30 12:44 | 51.43974 | -57.47625 | 40276 ft | 515 kts | 47° |
| 2026-04-30 12:44 | 51.48955 | -57.39368 | 40277 ft | 515 kts | 47° |
| 2026-04-30 12:45 | 51.53926 | -57.31100 | 40274 ft | 515 kts | 47° |
| 2026-04-30 12:45 | 51.58896 | -57.22806 | 40269 ft | 515 kts | 47° |
| 2026-04-30 12:46 | 51.63859 | -57.14496 | 40278 ft | 515 kts | 47° |
| 2026-04-30 12:46 | 51.68814 | -57.06172 | 40278 ft | 515 kts | 47° |
| 2026-04-30 12:47 | 51.73760 | -56.97833 | 40268 ft | 515 kts | 47° |
| 2026-04-30 12:47 | 51.78704 | -56.89471 | 40262 ft | 515 kts | 47° |
| 2026-04-30 12:48 | 51.83640 | -56.81095 | 40267 ft | 515 kts | 47° |
| 2026-04-30 12:48 | 51.88571 | -56.72698 | 40264 ft | 515 kts | 47° |
| 2026-04-30 12:49 | 51.93497 | -56.64280 | 40254 ft | 515 kts | 47° |
| 2026-04-30 12:49 | 51.98380 | -56.55908 | 40247 ft | 515 kts | 47° |
| 2026-04-30 12:50 | 52.03298 | -56.47446 | 40251 ft | 515 kts | 47° |
| 2026-04-30 12:50 | 52.08209 | -56.38968 | 40254 ft | 515 kts | 47° |
| 2026-04-30 12:51 | 52.13116 | -56.30467 | 40243 ft | 515 kts | 47° |
| 2026-04-30 12:51 | 52.18019 | -56.21943 | 40250 ft | 516 kts | 47° |
| 2026-04-30 12:52 | 52.22919 | -56.13396 | 40234 ft | 516 kts | 47° |
| 2026-04-30 12:52 | 52.27815 | -56.04827 | 40243 ft | 516 kts | 48° |
| 2026-04-30 12:53 | 52.32705 | -55.96238 | 40241 ft | 516 kts | 48° |
| 2026-04-30 12:53 | 52.37587 | -55.87616 | 40236 ft | 517 kts | 49° |
| 2026-04-30 12:54 | 52.41622 | -55.77957 | 40236 ft | 514 kts | 63° |
| 2026-04-30 12:54 | 52.44942 | -55.67600 | 40239 ft | 513 kts | 64° |
| 2026-04-30 12:55 | 52.48120 | -55.57167 | 40239 ft | 510 kts | 65° |
| 2026-04-30 12:55 | 52.51276 | -55.46742 | 40243 ft | 510 kts | 65° |
| 2026-04-30 12:56 | 52.54439 | -55.36316 | 40236 ft | 510 kts | 65° |
| 2026-04-30 12:56 | 52.57581 | -55.25950 | 40244 ft | 510 kts | 65° |
| 2026-04-30 12:57 | 52.60738 | -55.15495 | 40239 ft | 510 kts | 65° |
| 2026-04-30 12:57 | 52.63883 | -55.05034 | 40238 ft | 511 kts | 65° |
| 2026-04-30 12:58 | 52.67023 | -54.94540 | 40245 ft | 511 kts | 65° |
| 2026-04-30 12:58 | 52.70156 | -54.84024 | 40242 ft | 511 kts | 65° |
| 2026-04-30 12:59 | 52.73278 | -54.73501 | 40233 ft | 511 kts | 65° |
| 2026-04-30 12:59 | 52.76390 | -54.62960 | 40249 ft | 511 kts | 65° |
| 2026-04-30 13:00 | 52.79491 | -54.52417 | 40245 ft | 509 kts | 65° |
| 2026-04-30 13:00 | 52.82570 | -54.41894 | 40252 ft | 508 kts | 65° |
| 2026-04-30 13:01 | 52.85120 | -54.33145 | 40243 ft | 508 kts | 65° |
| 2026-04-30 13:01 | 52.88181 | -54.22602 | 40243 ft | 508 kts | 65° |
| 2026-04-30 13:02 | 52.91229 | -54.12056 | 40253 ft | 508 kts | 65° |
| 2026-04-30 13:02 | 52.94787 | -53.99686 | 40253 ft | 509 kts | 65° |
| 2026-04-30 13:03 | 52.97307 | -53.90884 | 40248 ft | 509 kts | 65° |
| 2026-04-30 13:03 | 53.00332 | -53.80275 | 40252 ft | 509 kts | 65° |
| 2026-04-30 13:04 | 53.03349 | -53.69647 | 40260 ft | 509 kts | 65° |
| 2026-04-30 13:04 | 53.06355 | -53.59010 | 40250 ft | 508 kts | 65° |
| 2026-04-30 13:05 | 53.09351 | -53.48360 | 40246 ft | 508 kts | 65° |
| 2026-04-30 13:06 | 53.13803 | -53.32441 | 40252 ft | 505 kts | 66° |
| 2026-04-30 13:06 | 53.16755 | -53.21828 | 40259 ft | 505 kts | 66° |
| 2026-04-30 13:07 | 53.19679 | -53.11265 | 40261 ft | 506 kts | 66° |
| 2026-04-30 13:07 | 53.22616 | -53.00606 | 40260 ft | 506 kts | 66° |
| 2026-04-30 13:08 | 53.25544 | -52.89931 | 40258 ft | 506 kts | 66° |
| 2026-04-30 13:08 | 53.28462 | -52.79244 | 40265 ft | 506 kts | 66° |
| 2026-04-30 13:09 | 53.31373 | -52.68531 | 40265 ft | 506 kts | 66° |
| 2026-04-30 13:09 | 53.34279 | -52.57789 | 40269 ft | 507 kts | 66° |
| 2026-04-30 13:10 | 53.37177 | -52.47025 | 40265 ft | 507 kts | 66° |
| 2026-04-30 13:10 | 53.40066 | -52.36244 | 40260 ft | 507 kts | 67° |
| 2026-04-30 13:11 | 53.42940 | -52.25469 | 40271 ft | 506 kts | 67° |
| 2026-04-30 13:11 | 53.45806 | -52.14670 | 40273 ft | 508 kts | 67° |
| 2026-04-30 13:12 | 53.48671 | -52.03828 | 40268 ft | 508 kts | 67° |
| 2026-04-30 13:12 | 53.51525 | -51.92971 | 40277 ft | 508 kts | 67° |
| 2026-04-30 13:13 | 53.55768 | -51.76737 | 40279 ft | 508 kts | 68° |
| 2026-04-30 13:14 | 53.60018 | -51.60359 | 40282 ft | 510 kts | 68° |
| 2026-04-30 13:14 | 53.64252 | -51.43921 | 40284 ft | 510 kts | 68° |
| 2026-04-30 13:15 | 53.68462 | -51.27458 | 40281 ft | 510 kts | 68° |
| 2026-04-30 13:16 | 53.71260 | -51.16447 | 40282 ft | 511 kts | 68° |
| 2026-04-30 13:16 | 53.74047 | -51.05427 | 40282 ft | 510 kts | 68° |
| 2026-04-30 13:17 | 53.78211 | -50.88859 | 40288 ft | 510 kts | 69° |
| 2026-04-30 13:18 | 53.82351 | -50.72259 | 40288 ft | 511 kts | 69° |
| 2026-04-30 13:18 | 53.86481 | -50.55574 | 40284 ft | 513 kts | 69° |
| 2026-04-30 13:19 | 53.89224 | -50.44426 | 40289 ft | 513 kts | 69° |
| 2026-04-30 13:19 | 53.91957 | -50.33262 | 40289 ft | 512 kts | 69° |
| 2026-04-30 13:20 | 53.94678 | -50.22087 | 40287 ft | 513 kts | 69° |
| 2026-04-30 13:20 | 53.97396 | -50.10866 | 40286 ft | 514 kts | 69° |
| 2026-04-30 13:21 | 53.99959 | -49.99538 | 40287 ft | 512 kts | 76° |
| 2026-04-30 13:22 | 54.02629 | -49.82060 | 40293 ft | 511 kts | 78° |
| 2026-04-30 13:22 | 54.05111 | -49.64409 | 40291 ft | 512 kts | 78° |
| 2026-04-30 13:23 | 54.07588 | -49.46691 | 40288 ft | 513 kts | 78° |
| 2026-04-30 13:24 | 54.10866 | -49.23040 | 40298 ft | 513 kts | 79° |
| 2026-04-30 13:25 | 54.14099 | -48.99336 | 40293 ft | 514 kts | 79° |
| 2026-04-30 13:26 | 54.18088 | -48.69554 | 40300 ft | 515 kts | 79° |
| 2026-04-30 13:28 | 54.22002 | -48.39731 | 40302 ft | 515 kts | 79° |
| 2026-04-30 13:28 | 54.24314 | -48.21807 | 40303 ft | 515 kts | 79° |
| 2026-04-30 13:29 | 54.27351 | -47.97925 | 40307 ft | 513 kts | 80° |
| 2026-04-30 13:31 | 54.31071 | -47.68095 | 40314 ft | 515 kts | 80° |
| 2026-04-30 13:32 | 54.34733 | -47.38089 | 40318 ft | 515 kts | 80° |
| 2026-04-30 13:33 | 54.37608 | -47.14051 | 40312 ft | 514 kts | 81° |
| 2026-04-30 13:34 | 54.39728 | -46.96037 | 40326 ft | 513 kts | 81° |
| 2026-04-30 13:35 | 54.42512 | -46.71998 | 40315 ft | 513 kts | 81° |
| 2026-04-30 13:36 | 54.45251 | -46.47903 | 40322 ft | 515 kts | 81° |
| 2026-04-30 13:36 | 54.47269 | -46.29864 | 40320 ft | 515 kts | 81° |
| 2026-04-30 13:37 | 54.49261 | -46.11794 | 40324 ft | 511 kts | 81° |
| 2026-04-30 13:38 | 54.51220 | -45.93754 | 40327 ft | 512 kts | 81° |
| 2026-04-30 13:39 | 54.53796 | -45.69628 | 40332 ft | 512 kts | 82° |
| 2026-04-30 13:40 | 54.55697 | -45.51512 | 40335 ft | 512 kts | 82° |
| 2026-04-30 13:40 | 54.56948 | -45.39429 | 40336 ft | 512 kts | 82° |
| 2026-04-30 13:41 | 54.58189 | -45.27328 | 40328 ft | 512 kts | 82° |
| 2026-04-30 13:41 | 54.59415 | -45.15243 | 40336 ft | 511 kts | 82° |
| 2026-04-30 13:42 | 54.60618 | -45.03261 | 40337 ft | 511 kts | 82° |
| 2026-04-30 13:42 | 54.62414 | -44.85139 | 40335 ft | 511 kts | 82° |
| 2026-04-30 13:43 | 54.63596 | -44.73052 | 40339 ft | 511 kts | 82° |
| 2026-04-30 13:43 | 54.64768 | -44.60929 | 40335 ft | 513 kts | 82° |
| 2026-04-30 13:44 | 54.65931 | -44.48779 | 40337 ft | 513 kts | 82° |
| 2026-04-30 13:44 | 54.67081 | -44.36622 | 40323 ft | 513 kts | 82° |
| 2026-04-30 13:45 | 54.68778 | -44.18442 | 40343 ft | 510 kts | 83° |
| 2026-04-30 13:46 | 54.69891 | -44.06336 | 40345 ft | 510 kts | 83° |
| 2026-04-30 13:46 | 54.70994 | -43.94206 | 40346 ft | 511 kts | 83° |
| 2026-04-30 13:47 | 54.72086 | -43.82060 | 40344 ft | 511 kts | 83° |
| 2026-04-30 13:47 | 54.73159 | -43.69991 | 40343 ft | 511 kts | 83° |
| 2026-04-30 13:48 | 54.74226 | -43.57834 | 40343 ft | 511 kts | 83° |
| 2026-04-30 13:48 | 54.75282 | -43.45667 | 40348 ft | 512 kts | 83° |
| 2026-04-30 13:49 | 54.76327 | -43.33477 | 40340 ft | 511 kts | 83° |
| 2026-04-30 13:49 | 54.77356 | -43.21324 | 40343 ft | 509 kts | 83° |
| 2026-04-30 13:50 | 54.78371 | -43.09190 | 40346 ft | 509 kts | 83° |
| 2026-04-30 13:50 | 54.79870 | -42.90982 | 40346 ft | 509 kts | 83° |
| 2026-04-30 13:51 | 54.80854 | -42.78832 | 40349 ft | 510 kts | 83° |
| 2026-04-30 13:51 | 54.81830 | -42.66634 | 40350 ft | 511 kts | 83° |
| 2026-04-30 13:52 | 54.82794 | -42.54423 | 40346 ft | 511 kts | 83° |
| 2026-04-30 13:52 | 54.83746 | -42.42203 | 40331 ft | 511 kts | 84° |
| 2026-04-30 13:53 | 54.84527 | -42.32065 | 40348 ft | 509 kts | 83° |
| 2026-04-30 13:53 | 54.85451 | -42.19917 | 40350 ft | 507 kts | 84° |
| 2026-04-30 13:54 | 54.86361 | -42.07772 | 40346 ft | 507 kts | 84° |
| 2026-04-30 13:54 | 54.87259 | -41.95626 | 40357 ft | 507 kts | 84° |
| 2026-04-30 13:55 | 54.88145 | -41.83469 | 40352 ft | 507 kts | 84° |
| 2026-04-30 13:55 | 54.89020 | -41.71306 | 40354 ft | 507 kts | 84° |
| 2026-04-30 13:56 | 54.89881 | -41.59147 | 40360 ft | 507 kts | 84° |
| 2026-04-30 13:56 | 54.90732 | -41.46963 | 40357 ft | 509 kts | 84° |
| 2026-04-30 13:57 | 54.91571 | -41.34769 | 40358 ft | 507 kts | 84° |
| 2026-04-30 13:57 | 54.92395 | -41.22610 | 40360 ft | 506 kts | 84° |
| 2026-04-30 13:58 | 54.93607 | -41.04382 | 40358 ft | 506 kts | 84° |
| 2026-04-30 13:59 | 54.94394 | -40.92314 | 40357 ft | 506 kts | 84° |
| 2026-04-30 13:59 | 54.95175 | -40.80143 | 40355 ft | 507 kts | 84° |
| 2026-04-30 14:00 | 54.95946 | -40.67952 | 40357 ft | 507 kts | 85° |
| 2026-04-30 14:00 | 54.97078 | -40.49662 | 40360 ft | 507 kts | 85° |
| 2026-04-30 14:01 | 54.97817 | -40.37466 | 40360 ft | 505 kts | 85° |
| 2026-04-30 14:01 | 54.98541 | -40.25319 | 40361 ft | 505 kts | 85° |
| 2026-04-30 14:02 | 54.99253 | -40.13153 | 40360 ft | 506 kts | 85° |
| 2026-04-30 14:02 | 54.99955 | -40.00963 | 40357 ft | 506 kts | 85° |
| 2026-04-30 14:03 | 55.00550 | -39.88764 | 40357 ft | 506 kts | 87° |
| 2026-04-30 14:03 | 55.00995 | -39.76541 | 40357 ft | 505 kts | 87° |
| 2026-04-30 14:04 | 55.01431 | -39.64322 | 40366 ft | 506 kts | 87° |
| 2026-04-30 14:04 | 55.01882 | -39.52067 | 40362 ft | 507 kts | 87° |
| 2026-04-30 14:05 | 55.02332 | -39.39796 | 40361 ft | 508 kts | 87° |
| 2026-04-30 14:05 | 55.02771 | -39.27511 | 40363 ft | 508 kts | 87° |
| 2026-04-30 14:06 | 55.03405 | -39.09078 | 40362 ft | 508 kts | 87° |
| 2026-04-30 14:07 | 55.04010 | -38.90633 | 40366 ft | 509 kts | 87° |
| 2026-04-30 14:08 | 55.04586 | -38.72234 | 40363 ft | 509 kts | 88° |
| 2026-04-30 14:08 | 55.05137 | -38.53750 | 40366 ft | 509 kts | 88° |
| 2026-04-30 14:09 | 55.05488 | -38.41452 | 40365 ft | 506 kts | 88° |
| 2026-04-30 14:10 | 55.05989 | -38.23068 | 40369 ft | 507 kts | 88° |
| 2026-04-30 14:10 | 55.06308 | -38.10769 | 40367 ft | 508 kts | 88° |
| 2026-04-30 14:11 | 55.06616 | -37.98465 | 40371 ft | 508 kts | 88° |
| 2026-04-30 14:11 | 55.06911 | -37.86155 | 40363 ft | 508 kts | 88° |
| 2026-04-30 14:12 | 55.07194 | -37.73842 | 40367 ft | 508 kts | 88° |
| 2026-04-30 14:12 | 55.07464 | -37.61532 | 40371 ft | 508 kts | 88° |
| 2026-04-30 14:13 | 55.07721 | -37.49217 | 40365 ft | 507 kts | 88° |
| 2026-04-30 14:13 | 55.07966 | -37.36948 | 40368 ft | 505 kts | 88° |
| 2026-04-30 14:14 | 55.08198 | -37.24688 | 40371 ft | 505 kts | 88° |
| 2026-04-30 14:14 | 55.08417 | -37.12443 | 40368 ft | 505 kts | 88° |
| 2026-04-30 14:15 | 55.08624 | -37.00185 | 40371 ft | 505 kts | 88° |
| 2026-04-30 14:15 | 55.08819 | -36.87923 | 40371 ft | 506 kts | 88° |
| 2026-04-30 14:16 | 55.09002 | -36.75633 | 40367 ft | 506 kts | 89° |
| 2026-04-30 14:16 | 55.09173 | -36.63343 | 40368 ft | 506 kts | 89° |
| 2026-04-30 14:17 | 55.09331 | -36.51078 | 40367 ft | 504 kts | 89° |
| 2026-04-30 14:17 | 55.09476 | -36.38858 | 40368 ft | 503 kts | 89° |
| 2026-04-30 14:18 | 55.09608 | -36.26634 | 40365 ft | 504 kts | 89° |
| 2026-04-30 14:18 | 55.09785 | -36.08259 | 40376 ft | 505 kts | 89° |
| 2026-04-30 14:19 | 55.09934 | -35.89866 | 40372 ft | 505 kts | 89° |
| 2026-04-30 14:20 | 55.10019 | -35.77599 | 40371 ft | 505 kts | 89° |
| 2026-04-30 14:20 | 55.10121 | -35.59212 | 40371 ft | 503 kts | 89° |
| 2026-04-30 14:21 | 55.10174 | -35.47013 | 40379 ft | 502 kts | 89° |
| 2026-04-30 14:22 | 55.10231 | -35.28830 | 40376 ft | 501 kts | 89° |
| 2026-04-30 14:22 | 55.10260 | -35.10567 | 40376 ft | 502 kts | 89° |
| 2026-04-30 14:23 | 55.10257 | -34.86190 | 40376 ft | 503 kts | 89° |
| 2026-04-30 14:24 | 55.10222 | -34.67881 | 40378 ft | 502 kts | 89° |
| 2026-04-30 14:25 | 55.10134 | -34.43575 | 40380 ft | 500 kts | 90° |
| 2026-04-30 14:26 | 55.10036 | -34.25364 | 40380 ft | 501 kts | 90° |
| 2026-04-30 14:27 | 55.09911 | -34.07106 | 40379 ft | 502 kts | 90° |
| 2026-04-30 14:27 | 55.09812 | -33.94919 | 40382 ft | 502 kts | 90° |
| 2026-04-30 14:28 | 55.09641 | -33.76638 | 40369 ft | 502 kts | 90° |
| 2026-04-30 14:28 | 55.09512 | -33.64492 | 40388 ft | 499 kts | 90° |
| 2026-04-30 14:29 | 55.09246 | -33.42332 | 40384 ft | 499 kts | 90° |
| 2026-04-30 14:31 | 55.08786 | -33.10020 | 40381 ft | 499 kts | 90° |
| 2026-04-30 14:31 | 55.08491 | -32.91937 | 40384 ft | 500 kts | 90° |
| 2026-04-30 14:32 | 55.08166 | -32.73731 | 40382 ft | 499 kts | 90° |
| 2026-04-30 14:33 | 55.07936 | -32.61657 | 40384 ft | 498 kts | 90° |
| 2026-04-30 14:33 | 55.07569 | -32.43556 | 40384 ft | 497 kts | 91° |
| 2026-04-30 14:34 | 55.07310 | -32.31492 | 40391 ft | 497 kts | 91° |
| 2026-04-30 14:34 | 55.07038 | -32.19417 | 40380 ft | 499 kts | 91° |
| 2026-04-30 14:35 | 55.06607 | -32.01273 | 40379 ft | 499 kts | 91° |
| 2026-04-30 14:36 | 55.06305 | -31.89175 | 40377 ft | 499 kts | 91° |
| 2026-04-30 14:36 | 55.05990 | -31.77085 | 40378 ft | 498 kts | 91° |
| 2026-04-30 14:37 | 55.05665 | -31.65044 | 40399 ft | 497 kts | 91° |
| 2026-04-30 14:37 | 55.05328 | -31.53002 | 40386 ft | 497 kts | 91° |
| 2026-04-30 14:38 | 55.04979 | -31.40952 | 40383 ft | 498 kts | 91° |
| 2026-04-30 14:38 | 55.04618 | -31.28895 | 40384 ft | 498 kts | 91° |
| 2026-04-30 14:39 | 55.04245 | -31.16838 | 40385 ft | 498 kts | 91° |
| 2026-04-30 14:39 | 55.03863 | -31.04871 | 40383 ft | 498 kts | 91° |
| 2026-04-30 14:40 | 55.03262 | -30.86787 | 40382 ft | 499 kts | 91° |
| 2026-04-30 14:40 | 55.02848 | -30.74759 | 40380 ft | 496 kts | 91° |
| 2026-04-30 14:41 | 55.02423 | -30.62755 | 40374 ft | 496 kts | 91° |
| 2026-04-30 14:41 | 55.02058 | -30.52705 | 40378 ft | 496 kts | 91° |
| 2026-04-30 14:42 | 55.01611 | -30.40711 | 40380 ft | 496 kts | 91° |
| 2026-04-30 14:42 | 55.01153 | -30.28717 | 40378 ft | 496 kts | 91° |
| 2026-04-30 14:43 | 55.00682 | -30.16713 | 40375 ft | 497 kts | 92° |
| 2026-04-30 14:43 | 55.00199 | -30.04695 | 40381 ft | 497 kts | 92° |
| 2026-04-30 14:44 | 54.99664 | -29.92680 | 40375 ft | 498 kts | 93° |
| 2026-04-30 14:44 | 54.98948 | -29.80685 | 40376 ft | 498 kts | 94° |
| 2026-04-30 14:45 | 54.98203 | -29.68782 | 40376 ft | 498 kts | 94° |
| 2026-04-30 14:45 | 54.97465 | -29.56790 | 40379 ft | 498 kts | 94° |
| 2026-04-30 14:46 | 54.96730 | -29.44793 | 40376 ft | 499 kts | 94° |
| 2026-04-30 14:46 | 54.95987 | -29.32794 | 40379 ft | 499 kts | 94° |
| 2026-04-30 14:47 | 54.95231 | -29.20800 | 40377 ft | 499 kts | 94° |
| 2026-04-30 14:47 | 54.94463 | -29.08816 | 40373 ft | 499 kts | 94° |
| 2026-04-30 14:48 | 54.93683 | -28.96848 | 40376 ft | 496 kts | 94° |
| 2026-04-30 14:48 | 54.92896 | -28.84955 | 40372 ft | 494 kts | 94° |
| 2026-04-30 14:49 | 54.92099 | -28.73082 | 40371 ft | 494 kts | 94° |
| 2026-04-30 14:49 | 54.91291 | -28.61216 | 40372 ft | 494 kts | 94° |
| 2026-04-30 14:50 | 54.90057 | -28.43418 | 40372 ft | 495 kts | 95° |
| 2026-04-30 14:51 | 54.88795 | -28.25628 | 40375 ft | 495 kts | 95° |
| 2026-04-30 14:52 | 54.87507 | -28.07831 | 40371 ft | 494 kts | 95° |
| 2026-04-30 14:52 | 54.86196 | -27.90098 | 40375 ft | 493 kts | 95° |
| 2026-04-30 14:53 | 54.84868 | -27.72474 | 40372 ft | 493 kts | 95° |
| 2026-04-30 14:54 | 54.83046 | -27.48870 | 40371 ft | 494 kts | 95° |
| 2026-04-30 14:55 | 54.81649 | -27.31155 | 40371 ft | 494 kts | 95° |
| 2026-04-30 14:56 | 54.79749 | -27.07612 | 40369 ft | 492 kts | 95° |
| 2026-04-30 14:57 | 54.78298 | -26.90010 | 40370 ft | 492 kts | 95° |
| 2026-04-30 14:58 | 54.76321 | -26.66523 | 40368 ft | 493 kts | 96° |
| 2026-04-30 14:58 | 54.74807 | -26.48918 | 40371 ft | 493 kts | 96° |
| 2026-04-30 15:00 | 54.72232 | -26.19649 | 40362 ft | 491 kts | 96° |
| 2026-04-30 15:01 | 54.70128 | -25.96324 | 40368 ft | 491 kts | 96° |
| 2026-04-30 15:01 | 54.68519 | -25.78841 | 40357 ft | 491 kts | 96° |
| 2026-04-30 15:02 | 54.67433 | -25.67200 | 40362 ft | 491 kts | 96° |
| 2026-04-30 15:03 | 54.64674 | -25.38156 | 40358 ft | 492 kts | 97° |
| 2026-04-30 15:04 | 54.61836 | -25.09070 | 40346 ft | 492 kts | 97° |
| 2026-04-30 15:06 | 54.58928 | -24.80007 | 40351 ft | 492 kts | 97° |
| 2026-04-30 15:07 | 54.56546 | -24.56749 | 40350 ft | 493 kts | 97° |
| 2026-04-30 15:08 | 54.54117 | -24.33491 | 40354 ft | 493 kts | 98° |
| 2026-04-30 15:09 | 54.51007 | -24.04344 | 40340 ft | 496 kts | 98° |
| 2026-04-30 15:10 | 54.48463 | -23.81020 | 40338 ft | 496 kts | 98° |
| 2026-04-30 15:11 | 54.44561 | -23.46047 | 40327 ft | 499 kts | 99° |
| 2026-04-30 15:13 | 54.41204 | -23.16717 | 40322 ft | 499 kts | 99° |
| 2026-04-30 15:14 | 54.36402 | -22.75879 | 40309 ft | 500 kts | 99° |
| 2026-04-30 15:17 | 54.30008 | -22.23379 | 40295 ft | 500 kts | 100° |
| 2026-04-30 15:19 | 54.24138 | -21.76882 | 40292 ft | 499 kts | 100° |
| 2026-04-30 17:39 | 50.05176 | 8.07475 | 42344 ft | 482 kts | 107° |
| 2026-04-30 17:42 | 49.93596 | 8.56338 | 42321 ft | 485 kts | 115° |
| 2026-04-30 17:43 | 49.85249 | 8.79128 | 42335 ft | 486 kts | 117° |
| 2026-04-30 17:44 | 49.75103 | 9.06268 | 42350 ft | 487 kts | 117° |
| 2026-04-30 17:47 | 49.59801 | 9.44989 | 41991 ft | 488 kts | 127° |
| 2026-04-30 17:48 | 49.50928 | 9.60649 | 39571 ft | 478 kts | 127° |
| 2026-04-30 17:48 | 49.44337 | 9.72075 | 36927 ft | 476 kts | 127° |
| 2026-04-30 17:49 | 49.35589 | 9.87274 | 33935 ft | 474 kts | 126° |
| 2026-04-30 17:50 | 49.26835 | 10.02340 | 30569 ft | 472 kts | 127° |
| 2026-04-30 17:51 | 49.20340 | 10.13454 | 28153 ft | 462 kts | 127° |
| 2026-04-30 17:52 | 49.13982 | 10.24321 | 26046 ft | 452 kts | 127° |
| 2026-04-30 17:53 | 49.03314 | 10.41495 | 22540 ft | 437 kts | 129° |
| 2026-04-30 17:54 | 48.95123 | 10.54535 | 19994 ft | 416 kts | 129° |
| 2026-04-30 17:55 | 48.87289 | 10.66959 | 17347 ft | 399 kts | 129° |
| 2026-04-30 17:56 | 48.79761 | 10.78764 | 14688 ft | 382 kts | 131° |
| 2026-04-30 17:57 | 48.74275 | 10.87297 | 12556 ft | 371 kts | 132° |
| 2026-04-30 17:58 | 48.69013 | 10.95546 | 10746 ft | 346 kts | 132° |
| 2026-04-30 17:59 | 48.63192 | 11.04700 | 8586 ft | 274 kts | 131° |
| 2026-04-30 18:00 | 48.58015 | 11.12800 | 7120 ft | 263 kts | 132° |
| 2026-04-30 18:00 | 48.54218 | 11.18691 | 6643 ft | 260 kts | 132° |
| 2026-04-30 18:01 | 48.51700 | 11.22584 | 6392 ft | 259 kts | 132° |
| 2026-04-30 18:02 | 48.47928 | 11.28387 | 6007 ft | 256 kts | 132° |
| 2026-04-30 18:02 | 48.44319 | 11.33940 | 5588 ft | 231 kts | 131° |
| 2026-04-30 18:03 | 48.41098 | 11.38899 | 5180 ft | 209 kts | 130° |
| 2026-04-30 18:04 | 48.38198 | 11.43364 | 4792 ft | 196 kts | 131° |
| 2026-04-30 18:05 | 48.34550 | 11.49396 | 4270 ft | 187 kts | 108° |
| 2026-04-30 18:06 | 48.34723 | 11.56445 | 3988 ft | 160 kts | 84° |
| 2026-04-30 18:07 | 48.35197 | 11.62960 | 3391 ft | 156 kts | 84° |
| 2026-04-30 18:08 | 48.35540 | 11.67441 | 2755 ft | 130 kts | 84° |
| 2026-04-30 18:09 | 48.35954 | 11.72612 | 2068 ft | 124 kts | 85° |
| 2026-04-30 18:10 | 48.36374 | 11.78023 | 1483 ft | 107 kts | 83° |
| 2026-04-30 18:11 | 48.36316 | 11.79725 | 1479 ft | 0 kts | 114° |
| 2026-04-30 18:11 | 48.36219 | 11.79576 | 1481 ft | 16 kts | 263° |
| 2026-04-30 18:12 | 48.36017 | 11.79493 | 1488 ft | 0 kts | 173° |
| 2026-04-30 18:13 | 48.35858 | 11.79522 | 1484 ft | 15 kts | 173° |
| 2026-04-30 18:14 | 48.35575 | 11.79433 | 1490 ft | 21 kts | 174° |
| 2026-04-30 18:15 | 48.35314 | 11.79658 | 1479 ft | 11 kts | 103° |
| 2026-04-30 18:15 | 48.35319 | 11.79760 | 1492 ft | 0 kts | 83° |